createdAt,value
2023-03-12T00:00:08.849Z,6.47
2023-03-12T00:02:36.285Z,7.05
2023-03-12T00:05:06.874Z,6.65
2023-03-12T00:07:36.677Z,7.32
2023-03-12T00:10:05.917Z,7.95
2023-03-12T00:12:32.896Z,7.13
2023-03-12T00:15:01.039Z,7.95
2023-03-12T00:17:29.580Z,7.57
2023-03-12T00:19:56.552Z,6.65
2023-03-12T00:22:23.621Z,6.32
2023-03-12T00:24:52.093Z,7.10
2023-03-12T00:27:19.820Z,7.05
2023-03-12T00:29:46.846Z,7.10
2023-03-12T00:32:13.879Z,7.38
2023-03-12T00:34:41.025Z,7.18
2023-03-12T00:37:08.463Z,6.68
2023-03-12T00:39:35.555Z,7.40
2023-03-12T00:42:02.626Z,5.90
2023-03-12T00:44:29.663Z,5.93
2023-03-12T00:46:56.811Z,5.75
2023-03-12T00:49:23.913Z,5.93
2023-03-12T00:51:50.987Z,5.93
2023-03-12T00:54:18.905Z,6.03
2023-03-12T00:56:46.939Z,4.80
2023-03-12T00:59:15.384Z,6.50
2023-03-12T01:01:43.444Z,5.10
2023-03-12T01:04:10.896Z,6.20
2023-03-12T01:06:38.392Z,6.80
2023-03-12T01:09:07.556Z,6.57
2023-03-12T01:11:34.529Z,6.07
2023-03-12T01:14:02.602Z,6.75
2023-03-12T01:16:30.600Z,6.60
2023-03-12T01:18:58.951Z,7.53
2023-03-12T01:21:27.172Z,8.10
2023-03-12T01:23:54.721Z,8.10
2023-03-12T01:26:22.072Z,8.77
2023-03-12T01:28:49.866Z,9.13
2023-03-12T01:31:21.698Z,9.90
2023-03-12T01:33:50.860Z,10.60
2023-03-12T01:36:20.762Z,10.38
2023-03-12T01:38:48.200Z,11.52
2023-03-12T01:41:15.240Z,12.07
2023-03-12T01:43:43.272Z,11.63
2023-03-12T01:46:37.029Z,13.20
2023-03-12T01:49:35.291Z,12.50
2023-03-12T01:52:07.060Z,11.20
2023-03-12T01:54:55.154Z,15.27
2023-03-12T01:57:26.987Z,14.18
2023-03-12T01:59:59.559Z,15.40
2023-03-12T02:02:28.883Z,13.93
2023-03-12T02:05:51.252Z,15.52
2023-03-12T02:08:19.062Z,15.05
2023-03-12T02:10:46.727Z,16.02
2023-03-12T02:13:14.306Z,15.95
2023-03-12T02:15:45.767Z,14.75
2023-03-12T02:18:17.592Z,15.00
2023-03-12T02:21:01.436Z,15.20
2023-03-12T02:24:03.581Z,16.75
2023-03-12T02:26:33.835Z,15.57
2023-03-12T02:29:02.326Z,14.18
2023-03-12T02:31:37.426Z,15.10
2023-03-12T02:34:04.551Z,16.55
2023-03-12T02:36:31.636Z,15.60
2023-03-12T02:38:58.644Z,16.00
2023-03-12T02:41:54.834Z,15.13
2023-03-12T02:44:22.369Z,14.40
2023-03-12T02:46:56.645Z,14.10
2023-03-12T02:49:26.545Z,14.02
2023-03-12T02:51:54.644Z,14.40
2023-03-12T02:54:22.165Z,13.38
2023-03-12T02:56:50.523Z,13.57
2023-03-12T02:59:20.902Z,11.80
2023-03-12T03:01:54.512Z,12.32
2023-03-12T03:04:22.339Z,13.13
2023-03-12T03:06:49.782Z,11.80
2023-03-12T03:09:17.354Z,13.85
2023-03-12T03:11:54.721Z,12.60
2023-03-12T03:14:23.602Z,11.95
2023-03-12T03:16:51.350Z,12.55
2023-03-12T03:19:18.551Z,11.57
2023-03-12T03:21:45.629Z,12.10
2023-03-12T03:24:12.599Z,11.23
2023-03-12T03:26:39.693Z,12.38
2023-03-12T03:29:06.719Z,12.40
2023-03-12T03:31:33.844Z,12.68
2023-03-12T03:34:01.014Z,12.43
2023-03-12T03:36:28.172Z,10.93
2023-03-12T03:39:05.722Z,11.60
2023-03-12T03:41:33.183Z,12.00
2023-03-12T03:44:00.480Z,12.82
2023-03-12T03:46:29.879Z,12.02
2023-03-12T03:49:04.554Z,11.55
2023-03-12T03:51:33.251Z,12.40
2023-03-12T03:54:05.331Z,11.48
2023-03-12T03:56:32.548Z,11.30
2023-03-12T03:59:03.148Z,11.77
2023-03-12T04:01:31.551Z,12.02
2023-03-12T04:04:00.261Z,12.27
2023-03-12T04:06:29.846Z,12.65
2023-03-12T04:08:58.571Z,12.73
2023-03-12T04:11:26.555Z,13.18
2023-03-12T04:13:55.163Z,9.88
2023-03-12T04:16:29.373Z,12.23
2023-03-12T04:18:57.413Z,11.85
2023-03-12T04:21:25.277Z,12.60
2023-03-12T04:23:52.461Z,12.23
2023-03-12T04:26:22.980Z,11.70
2023-03-12T04:29:01.135Z,10.68
2023-03-12T04:31:33.863Z,11.82
2023-03-12T04:34:00.932Z,11.82
2023-03-12T04:36:28.274Z,11.50
2023-03-12T04:38:56.461Z,11.20
2023-03-12T04:41:28.073Z,10.98
2023-03-12T04:44:01.967Z,11.02
2023-03-12T04:46:29.549Z,10.25
2023-03-12T04:48:56.712Z,10.73
2023-03-12T04:51:23.963Z,10.60
2023-03-12T04:53:51.604Z,11.23
2023-03-12T04:56:21.237Z,11.13
2023-03-12T04:58:50.383Z,10.80
2023-03-12T05:01:29.780Z,10.88
2023-03-12T05:03:56.797Z,9.77
2023-03-12T05:06:25.167Z,11.38
2023-03-12T05:08:53.185Z,10.18
2023-03-12T05:11:22.392Z,11.60
2023-03-12T05:13:49.786Z,12.00
2023-03-12T05:16:17.975Z,11.13
2023-03-12T05:18:47.377Z,11.02
2023-03-12T05:21:18.289Z,11.52
2023-03-12T05:23:46.150Z,11.95
2023-03-12T05:26:27.075Z,10.57
2023-03-12T05:29:01.549Z,10.40
2023-03-12T05:31:33.109Z,10.02
2023-03-12T05:34:04.132Z,8.55
2023-03-12T05:36:32.527Z,9.38
2023-03-12T05:39:00.276Z,10.13
2023-03-12T05:41:31.299Z,9.70
2023-03-12T05:44:04.253Z,9.05
2023-03-12T05:46:31.621Z,9.93
2023-03-12T05:48:59.801Z,9.77
2023-03-12T05:51:27.565Z,10.95
2023-03-12T05:53:54.596Z,8.93
2023-03-12T05:56:21.645Z,10.30
2023-03-12T05:58:50.018Z,10.82
2023-03-12T06:01:21.925Z,9.95
2023-03-12T06:03:49.671Z,10.70
2023-03-12T06:06:17.919Z,10.98
2023-03-12T06:08:45.343Z,11.45
2023-03-12T06:11:13.037Z,11.07
2023-03-12T06:13:41.170Z,11.48
2023-03-12T06:16:26.275Z,11.48
2023-03-12T06:18:58.268Z,12.43
2023-03-12T06:21:29.912Z,12.25
2023-03-12T06:23:59.001Z,12.13
2023-03-12T06:26:34.259Z,9.30
2023-03-12T06:29:01.270Z,11.30
2023-03-12T06:31:28.367Z,11.52
2023-03-12T06:33:55.449Z,12.30
2023-03-12T06:36:24.184Z,11.43
2023-03-12T06:38:51.179Z,11.63
2023-03-12T06:41:19.822Z,11.90
2023-03-12T06:43:47.767Z,12.45
2023-03-12T06:46:18.549Z,12.70
2023-03-12T06:48:46.740Z,13.32
2023-03-12T06:51:16.703Z,13.15
2023-03-12T06:53:45.010Z,14.52
2023-03-12T06:56:13.422Z,12.55
2023-03-12T06:58:41.041Z,14.52
2023-03-12T07:01:08.474Z,15.02
2023-03-12T07:03:35.642Z,14.98
2023-03-12T07:06:02.738Z,14.57
2023-03-12T07:08:31.229Z,15.90
2023-03-12T07:11:01.788Z,14.75
2023-03-12T07:13:30.131Z,12.80
2023-03-12T07:15:57.259Z,16.30
2023-03-12T07:18:24.324Z,14.43
2023-03-12T07:20:52.365Z,14.60
2023-03-12T07:23:19.519Z,14.90
2023-03-12T07:25:48.044Z,16.58
2023-03-12T07:28:15.535Z,15.98
2023-03-12T07:30:42.583Z,16.55
2023-03-12T07:33:12.616Z,14.27
2023-03-12T07:35:40.036Z,13.63
2023-03-12T07:38:07.681Z,15.57
2023-03-12T07:40:35.891Z,15.50
2023-03-12T07:43:03.587Z,15.35
2023-03-12T07:45:32.990Z,16.33
2023-03-12T07:47:59.964Z,14.95
2023-03-12T07:50:27.128Z,14.65
2023-03-12T07:52:54.045Z,15.70
2023-03-12T07:55:21.082Z,15.68
2023-03-12T07:57:48.107Z,14.15
2023-03-12T08:00:16.361Z,14.50
2023-03-12T08:02:43.930Z,14.32
2023-03-12T08:05:11.464Z,12.70
2023-03-12T08:07:38.438Z,12.88
2023-03-12T08:10:07.612Z,13.05
2023-03-12T08:12:35.011Z,12.35
2023-03-12T08:15:01.919Z,12.25
2023-03-12T08:17:29.914Z,11.18
2023-03-12T08:19:57.243Z,10.57
2023-03-12T08:22:27.529Z,9.18
2023-03-12T08:24:54.649Z,11.07
2023-03-12T08:27:21.793Z,8.23
2023-03-12T08:29:48.904Z,9.60
2023-03-12T08:32:15.979Z,9.38
2023-03-12T08:34:43.128Z,10.02
2023-03-12T08:37:10.264Z,9.15
2023-03-12T08:39:37.251Z,10.40
2023-03-12T08:42:05.626Z,9.32
2023-03-12T08:44:32.645Z,8.85
2023-03-12T08:46:59.670Z,7.97
2023-03-12T08:49:27.097Z,8.48
2023-03-12T08:51:54.049Z,8.75
2023-03-12T08:54:21.671Z,9.13
2023-03-12T08:56:53.163Z,9.70
2023-03-12T08:59:20.893Z,8.82
2023-03-12T09:01:48.567Z,8.50
2023-03-12T09:04:16.312Z,9.23
2023-03-12T09:06:43.921Z,9.10
2023-03-12T09:09:11.161Z,8.32
2023-03-12T09:11:42.403Z,7.90
2023-03-12T09:16:58.041Z,7.90
2023-03-12T09:19:26.597Z,8.52
2023-03-12T09:21:53.729Z,14.18
2023-03-12T09:24:20.825Z,9.48
2023-03-12T09:26:47.893Z,17.35
2023-03-12T09:29:14.792Z,8.32
2023-03-12T09:31:41.985Z,8.05
2023-03-12T09:34:08.949Z,11.55
2023-03-12T09:36:36.206Z,7.22
2023-03-12T09:39:03.855Z,6.43
2023-03-12T09:41:35.216Z,7.95
2023-03-12T09:44:11.706Z,7.68
2023-03-12T09:46:44.056Z,6.32
2023-03-12T09:49:32.474Z,7.60
2023-03-12T09:52:03.091Z,7.85
2023-03-12T09:54:39.565Z,8.07
2023-03-12T09:57:13.104Z,7.45
2023-03-12T09:59:40.618Z,7.18
2023-03-12T10:02:44.978Z,7.30
2023-03-12T10:05:24.438Z,6.53
2023-03-12T10:08:07.580Z,6.03
2023-03-12T10:10:55.047Z,6.47
2023-03-12T10:13:46.212Z,6.40
2023-03-12T10:16:37.765Z,5.95
2023-03-12T10:19:13.773Z,5.75
2023-03-12T10:21:43.556Z,5.30
2023-03-12T10:24:25.174Z,6.50
2023-03-12T10:26:57.315Z,6.20
2023-03-12T10:29:32.769Z,5.90
2023-03-12T10:32:05.649Z,5.75
2023-03-12T10:34:41.374Z,5.47
2023-03-12T10:37:37.394Z,6.10
2023-03-12T10:40:06.145Z,6.50
2023-03-12T10:42:33.375Z,5.85
2023-03-12T10:45:16.502Z,5.55
2023-03-12T10:47:44.649Z,5.97
2023-03-12T10:50:25.737Z,5.43
2023-03-12T10:53:11.638Z,5.07
2023-03-12T10:55:38.860Z,6.15
2023-03-12T10:58:05.904Z,5.75
2023-03-12T11:00:33.167Z,5.78
2023-03-12T11:03:19.150Z,5.88
2023-03-12T11:05:51.131Z,5.40
2023-03-12T11:08:30.755Z,4.78
2023-03-12T11:11:00.285Z,5.07
2023-03-12T11:13:40.223Z,5.72
2023-03-12T11:16:19.515Z,5.32
2023-03-12T11:18:57.505Z,5.43
2023-03-12T11:21:25.050Z,5.80
2023-03-12T11:23:58.178Z,6.65
2023-03-12T11:26:31.443Z,2.13
2023-03-12T11:29:19.444Z,1.50
2023-03-12T11:32:05.348Z,1.80
2023-03-12T11:34:37.342Z,1.60
2023-03-12T11:37:30.680Z,1.40
2023-03-12T11:40:13.531Z,1.60
2023-03-12T11:43:10.749Z,1.58
2023-03-12T11:45:47.807Z,1.02
2023-03-12T11:51:04.155Z,0.90
2023-03-12T11:54:09.787Z,0.80
2023-03-12T11:56:42.578Z,0.98
2023-03-12T11:59:36.556Z,0.73
2023-03-12T12:02:41.692Z,0.93
2023-03-12T12:05:28.289Z,1.02
2023-03-12T12:08:23.244Z,0.93
2023-03-12T12:11:08.728Z,6.38
2023-03-12T12:13:58.316Z,0.70
2023-03-12T12:16:46.530Z,0.80
2023-03-12T12:19:32.865Z,0.80
2023-03-12T12:22:18.681Z,0.88
2023-03-12T12:25:26.348Z,0.90
2023-03-12T12:28:15.315Z,1.20
2023-03-12T12:30:51.502Z,0.80
2023-03-12T12:33:27.945Z,0.90
2023-03-12T12:35:55.748Z,0.95
2023-03-12T12:38:32.188Z,0.90
2023-03-12T12:41:17.208Z,1.20
2023-03-12T12:43:49.700Z,0.70
2023-03-12T12:46:30.539Z,0.77
2023-03-12T12:49:10.254Z,0.77
2023-03-12T12:51:42.022Z,1.02
2023-03-12T12:54:19.786Z,0.73
2023-03-12T12:57:04.016Z,1.00
2023-03-12T12:59:42.871Z,1.10
2023-03-12T13:02:27.757Z,0.90
2023-03-12T13:04:59.105Z,1.05
2023-03-12T13:07:27.977Z,1.00
2023-03-12T13:09:57.695Z,0.90
2023-03-12T13:12:33.054Z,1.00
2023-03-12T13:15:02.143Z,1.20
2023-03-12T13:17:50.107Z,1.00
2023-03-12T13:20:21.085Z,1.17
2023-03-12T13:23:00.151Z,1.00
2023-03-12T13:26:15.359Z,1.20
2023-03-12T13:29:06.066Z,1.00
2023-03-12T13:31:39.699Z,1.37
2023-03-12T13:34:06.820Z,1.53
2023-03-12T13:36:38.466Z,1.30
2023-03-12T13:39:08.195Z,1.40
2023-03-12T13:41:52.546Z,1.40
2023-03-12T13:44:40.737Z,1.30
2023-03-12T13:47:11.126Z,1.10
2023-03-12T13:49:46.529Z,1.50
2023-03-12T13:52:33.085Z,1.60
2023-03-12T13:55:31.706Z,1.05
2023-03-12T13:58:16.121Z,1.03
2023-03-12T14:00:56.146Z,1.40
2023-03-12T14:03:42.949Z,1.20
2023-03-12T14:06:17.886Z,1.20
2023-03-12T14:09:03.636Z,1.20
2023-03-12T14:11:42.315Z,1.10
2023-03-12T14:14:09.306Z,1.10
2023-03-12T14:16:46.052Z,1.07
2023-03-12T14:19:17.322Z,1.27
2023-03-12T14:21:51.208Z,1.20
2023-03-12T14:24:28.839Z,1.20
2023-03-12T14:26:58.628Z,1.40
2023-03-12T14:29:39.158Z,1.10
2023-03-12T14:32:16.303Z,1.37
2023-03-12T14:34:55.362Z,1.13
2023-03-12T14:37:38.224Z,1.47
2023-03-12T14:40:41.177Z,1.13
2023-03-12T14:43:20.669Z,1.00
2023-03-12T14:45:55.283Z,1.37
2023-03-12T14:48:24.425Z,1.40
2023-03-12T14:50:53.659Z,1.30
2023-03-12T14:53:25.302Z,1.53
2023-03-12T14:56:10.500Z,1.70
2023-03-12T14:58:44.874Z,1.40
2023-03-12T15:01:21.406Z,1.80
2023-03-12T15:04:01.609Z,1.73
2023-03-12T15:06:47.329Z,2.00
2023-03-12T15:09:22.456Z,2.10
2023-03-12T15:12:01.131Z,2.10
2023-03-12T15:14:33.391Z,2.30
2023-03-12T15:17:01.113Z,2.60
2023-03-12T15:19:33.665Z,2.27
2023-03-12T15:22:01.226Z,2.40
2023-03-12T15:24:34.497Z,2.40
2023-03-12T15:27:20.318Z,2.03
2023-03-12T15:29:48.270Z,1.80
2023-03-12T15:32:18.112Z,2.30
2023-03-12T15:34:45.495Z,2.43
2023-03-12T15:37:38.277Z,2.37
2023-03-12T15:40:20.092Z,2.77
2023-03-12T15:42:48.381Z,2.43
2023-03-12T15:45:20.399Z,2.37
2023-03-12T15:47:49.439Z,2.20
2023-03-12T15:50:30.245Z,2.57
2023-03-12T15:53:18.320Z,2.27
2023-03-12T15:56:11.163Z,2.53
2023-03-12T15:58:42.144Z,2.77
2023-03-12T16:01:18.340Z,2.57
2023-03-12T16:03:45.980Z,1.83
2023-03-12T16:06:20.130Z,2.90
2023-03-12T16:08:51.586Z,3.00
2023-03-12T16:11:22.963Z,2.70
2023-03-12T16:13:53.308Z,2.97
2023-03-12T16:16:20.388Z,3.50
2023-03-12T16:18:47.852Z,2.30
2023-03-12T16:21:14.857Z,3.10
2023-03-12T16:23:42.006Z,2.30
2023-03-12T16:26:09.048Z,3.30
2023-03-12T16:28:36.605Z,2.10
2023-03-12T16:31:03.657Z,3.20
2023-03-12T16:33:30.721Z,2.97
2023-03-12T16:35:58.164Z,2.83
2023-03-12T16:38:25.287Z,3.63
2023-03-12T16:40:53.602Z,3.47
2023-03-12T16:43:24.328Z,3.00
2023-03-12T16:45:56.935Z,2.40
2023-03-12T16:48:24.653Z,3.00
2023-03-12T16:51:14.948Z,3.90
2023-03-12T16:53:43.217Z,2.77
2023-03-12T16:56:18.050Z,3.23
2023-03-12T16:58:46.406Z,3.93
2023-03-12T17:01:17.067Z,2.70
2023-03-12T17:03:47.372Z,3.87
2023-03-12T17:06:27.848Z,3.03
2023-03-12T17:08:55.356Z,3.20
2023-03-12T17:11:27.862Z,4.03
2023-03-12T17:13:58.681Z,3.97
2023-03-12T17:16:26.115Z,3.57
2023-03-12T17:18:53.990Z,3.60
2023-03-12T17:21:21.570Z,3.50
2023-03-12T17:23:50.541Z,3.43
2023-03-12T17:26:18.945Z,3.30
2023-03-12T17:28:45.940Z,3.23
2023-03-12T17:31:15.083Z,3.50
2023-03-12T17:33:43.504Z,3.13
2023-03-12T17:36:11.384Z,2.93
2023-03-12T17:38:39.315Z,3.27
2023-03-12T17:41:23.395Z,3.90
2023-03-12T17:43:52.524Z,3.53
2023-03-12T17:46:19.642Z,3.70
2023-03-12T17:48:46.672Z,3.43
2023-03-12T17:51:13.748Z,4.07
2023-03-12T17:53:42.118Z,4.00
2023-03-12T17:56:12.689Z,3.43
2023-03-12T17:58:39.812Z,2.90
2023-03-12T18:01:07.514Z,3.47
2023-03-12T18:03:34.579Z,3.20
2023-03-12T18:06:02.038Z,3.23
2023-03-12T18:08:29.436Z,3.10
2023-03-12T18:10:56.485Z,2.43
2023-03-12T18:13:23.450Z,2.70
2023-03-12T18:15:53.725Z,3.00
2023-03-12T18:18:21.469Z,2.40
2023-03-12T18:20:49.230Z,2.40
2023-03-12T18:23:17.128Z,2.43
2023-03-12T18:25:44.529Z,2.70
2023-03-12T18:28:12.288Z,2.83
2023-03-12T18:30:39.961Z,2.30
2023-03-12T18:33:07.196Z,2.37
2023-03-12T18:35:35.132Z,1.93
2023-03-12T18:38:02.627Z,2.03
2023-03-12T18:40:30.186Z,1.83
2023-03-12T18:42:58.178Z,2.20
2023-03-12T18:45:25.502Z,2.00
2023-03-12T18:47:52.659Z,2.10
2023-03-12T18:50:20.504Z,2.10
2023-03-12T18:52:48.086Z,2.27
2023-03-12T18:55:17.888Z,1.90
2023-03-12T18:57:47.315Z,2.20
2023-03-12T19:00:17.850Z,2.40
2023-03-12T19:02:48.000Z,1.70
2023-03-12T19:05:15.561Z,2.10
2023-03-12T19:07:42.582Z,2.23
2023-03-12T19:10:10.771Z,2.10
2023-03-12T19:12:50.842Z,1.90
2023-03-12T19:15:19.812Z,2.20
2023-03-12T19:17:48.999Z,2.23
2023-03-12T19:20:16.481Z,1.87
2023-03-12T19:22:43.475Z,1.80
2023-03-12T19:25:10.472Z,2.10
2023-03-12T19:27:37.522Z,1.80
2023-03-12T19:30:05.720Z,2.00
2023-03-12T19:32:42.245Z,1.70
2023-03-12T19:35:11.812Z,1.90
2023-03-12T19:37:38.943Z,1.73
2023-03-12T19:40:06.749Z,1.83
2023-03-12T19:42:34.116Z,2.30
2023-03-12T19:45:01.172Z,1.87
2023-03-12T19:47:33.256Z,1.90
2023-03-12T19:50:00.923Z,1.80
2023-03-12T19:52:28.216Z,1.60
2023-03-12T19:55:04.276Z,2.10
2023-03-12T19:57:32.904Z,2.47
2023-03-12T19:59:59.845Z,2.10
2023-03-12T20:02:28.114Z,2.00
2023-03-12T20:04:55.547Z,1.80
2023-03-12T20:07:22.798Z,1.60
2023-03-12T20:09:50.334Z,1.97
2023-03-12T20:12:17.389Z,2.00
2023-03-12T20:14:44.505Z,1.70
2023-03-12T20:17:12.372Z,1.60
2023-03-12T20:19:39.988Z,1.70
2023-03-12T20:22:07.560Z,2.00
2023-03-12T20:24:35.205Z,1.90
2023-03-12T20:27:04.032Z,2.00
2023-03-12T20:29:31.314Z,2.20
2023-03-12T20:31:58.475Z,1.90
2023-03-12T20:34:25.512Z,2.00
2023-03-12T20:36:52.487Z,2.00
2023-03-12T20:39:19.713Z,1.40
2023-03-12T20:41:46.704Z,1.90
2023-03-12T20:44:13.681Z,1.93
2023-03-12T20:46:40.638Z,1.80
2023-03-12T20:49:07.742Z,1.80
2023-03-12T20:51:34.709Z,2.20
2023-03-12T20:54:01.760Z,2.10
2023-03-12T20:56:28.801Z,1.70
2023-03-12T20:58:55.816Z,1.63
2023-03-12T21:01:23.322Z,1.53
2023-03-12T21:03:50.547Z,1.67
2023-03-12T21:06:17.634Z,1.90
2023-03-12T21:08:45.064Z,2.10
2023-03-12T21:11:12.763Z,1.40
2023-03-12T21:13:39.937Z,1.70
2023-03-12T21:16:08.922Z,2.00
2023-03-12T21:18:36.031Z,2.00
2023-03-12T21:21:05.222Z,2.00
2023-03-12T21:23:33.448Z,1.93
2023-03-12T21:26:02.734Z,1.70
2023-03-12T21:28:29.813Z,1.50
2023-03-12T21:31:04.554Z,1.90
2023-03-12T21:33:31.598Z,2.00
2023-03-12T21:35:58.543Z,1.80
2023-03-12T21:38:25.567Z,1.57
2023-03-12T21:40:54.320Z,1.60
2023-03-12T21:43:21.416Z,1.40
2023-03-12T21:45:48.365Z,1.50
2023-03-12T21:48:15.476Z,1.90
2023-03-12T21:50:42.405Z,1.90
2023-03-12T21:53:22.746Z,2.03
2023-03-12T21:55:58.269Z,1.17
2023-03-12T21:58:25.636Z,1.60
2023-03-12T22:00:52.807Z,1.00
2023-03-12T22:03:19.783Z,1.50
2023-03-12T22:05:54.151Z,1.70
2023-03-12T22:08:21.396Z,1.50
2023-03-12T22:10:49.022Z,1.37
2023-03-12T22:13:16.107Z,1.60
2023-03-12T22:15:46.944Z,1.53
2023-03-12T22:18:13.936Z,1.70
2023-03-12T22:20:40.935Z,1.50
2023-03-12T22:23:07.881Z,1.33
2023-03-12T22:25:34.972Z,1.40
2023-03-12T22:28:01.845Z,1.40
2023-03-12T22:30:28.890Z,1.83
2023-03-12T22:32:56.087Z,1.27
2023-03-12T22:35:25.889Z,1.60
2023-03-12T22:37:54.096Z,1.70
2023-03-12T22:40:21.128Z,1.23
2023-03-12T22:42:56.281Z,1.37
2023-03-12T22:45:23.387Z,1.40
2023-03-12T22:47:50.395Z,1.47
2023-03-12T22:50:17.387Z,1.40
2023-03-12T22:52:44.369Z,1.70
2023-03-12T22:55:11.372Z,1.70
2023-03-12T22:57:39.325Z,1.50
2023-03-12T23:00:10.635Z,1.60
2023-03-12T23:02:37.620Z,1.60
2023-03-12T23:05:05.615Z,1.57
2023-03-12T23:07:32.593Z,1.77
2023-03-12T23:09:59.793Z,1.33
2023-03-12T23:12:26.905Z,1.47
2023-03-12T23:14:53.855Z,1.50
2023-03-12T23:17:21.491Z,1.53
2023-03-12T23:19:48.409Z,1.70
2023-03-12T23:22:15.319Z,1.70
2023-03-12T23:24:43.098Z,1.40
2023-03-12T23:27:10.241Z,1.83
2023-03-12T23:29:37.249Z,1.43
2023-03-12T23:32:09.781Z,1.70
2023-03-12T23:34:36.724Z,1.77
2023-03-12T23:37:03.998Z,1.50
2023-03-12T23:39:31.911Z,1.53
2023-03-12T23:41:59.642Z,1.57
2023-03-12T23:44:26.733Z,1.67
2023-03-12T23:46:53.631Z,1.30
2023-03-12T23:49:20.538Z,1.20
2023-03-12T23:51:47.556Z,1.60
2023-03-12T23:54:15.451Z,1.60
2023-03-12T23:56:42.558Z,1.33
2023-03-12T23:59:10.778Z,1.60
